Grand Canyon Natl Park, Arizona
Current Conditions -  °F | °C
As of 3:06 PM on Thursday 18 Dec 2014 (Local Time) from KGCN Reporting Station
Overcast Overcast  
Wind Chill: 33°   Ceiling: 3100
Heat Index: 37°   Visibility: 10mi
Dew Point: 30°   Wind: 5mph
Humidity: 76%   Direction: 310°NW
Pressure: 30.12"   Gusts: NA
Location:  36.2°N, 112.07°W
Report Text: KGCN 182206Z 31004KT 10SM SCT023 OVC031 03/M01 A3012 RMK AO2 T00281011 $
Loading
Personal Weather Stations






























Interactive Weather Map New forecast layout! Learn more

10-Day Weather Forecast

Advertisements
Track Severe Weather on mobile